Time;durP1;ratioP1;P1;durP2;ratioP2;P2;SDS_P1;SDS_P2;PMS_P1;PMS_P2;Temp;Humidity;BMP_temperature;BMP_pressure;BME280_temperature;BME280_humidity;BME280_pressure;Samples;Min_cycle;Max_cycle;Signal;HPM_P1;HPM_P2
2023/06/01 00:02:02;;;;;;;10.20;3.95;;;;;;;-148.23;100.00;56998.88;5055199;28;20147;-61
2023/06/01 00:04:29;;;;;;;10.98;4.32;;;;;;;-148.23;100.00;56998.88;5054964;28;20155;-61
2023/06/01 00:06:59;;;;;;;8.70;3.97;;;;;;;-148.23;100.00;56998.88;5054747;28;20045;-60
2023/06/01 00:09:26;;;;;;;;;;;;;;;-148.23;100.00;56998.88;5055312;28;20053;-61
2023/06/01 00:11:53;;;;;;;10.52;4.32;;;;;;;-148.23;100.00;56998.88;5054944;28;19924;-61
2023/06/01 00:14:20;;;;;;;8.40;4.35;;;;;;;-148.23;100.00;56998.88;5055150;28;20079;-61
2023/06/01 00:16:47;;;;;;;10.35;3.92;;;;;;;-148.23;100.00;56998.88;5054968;28;20045;-62
2023/06/01 00:19:14;;;;;;;10.32;4.20;;;;;;;-148.23;100.00;56998.88;5054890;28;20131;-61
2023/06/01 00:21:41;;;;;;;14.30;4.50;;;;;;;-148.23;100.00;56998.88;5054668;28;20407;-61
2023/06/01 00:24:10;;;;;;;8.73;5.07;;;;;;;-148.23;100.00;56998.88;5054718;28;20084;-60
2023/06/01 00:26:37;;;;;;;9.52;4.20;;;;;;;-148.23;100.00;56998.88;5054683;28;20127;-60
2023/06/01 00:29:04;;;;;;;6.47;3.90;;;;;;;-148.23;100.00;56998.88;5054493;28;20395;-61
2023/06/01 00:31:31;;;;;;;15.88;4.18;;;;;;;-148.23;100.00;56998.88;5054604;28;20478;-60
2023/06/01 00:33:59;;;;;;;8.50;4.03;;;;;;;-148.23;100.00;56998.88;5054591;28;20481;-60
2023/06/01 00:36:26;;;;;;;15.07;4.55;;;;;;;-148.23;100.00;56998.88;5054780;28;20076;-61
2023/06/01 00:38:53;;;;;;;7.18;4.05;;;;;;;-148.23;100.00;56998.88;5054655;28;20132;-60
2023/06/01 00:41:21;;;;;;;12.77;4.82;;;;;;;-148.23;100.00;56998.88;5054391;28;20083;-60
2023/06/01 00:43:48;;;;;;;8.73;3.78;;;;;;;-148.23;100.00;56998.88;5054452;28;20057;-60
2023/06/01 00:46:16;;;;;;;13.32;5.85;;;;;;;-148.23;100.00;56998.88;5054361;28;20045;-60
2023/06/01 00:48:43;;;;;;;12.38;4.18;;;;;;;-148.23;100.00;56998.88;5054275;28;20049;-60
2023/06/01 00:51:11;;;;;;;8.68;4.20;;;;;;;-148.23;100.00;56998.88;5054108;28;20048;-60
2023/06/01 00:53:38;;;;;;;11.90;4.45;;;;;;;-148.23;100.00;56998.88;5054065;28;20053;-60
2023/06/01 00:56:05;;;;;;;8.10;4.30;;;;;;;-148.23;100.00;56998.88;5054254;28;20102;-60
2023/06/01 00:58:34;;;;;;;8.45;4.07;;;;;;;-148.23;100.00;56998.88;5053956;28;20407;-60
2023/06/01 01:01:02;;;;;;;11.50;4.50;;;;;;;-148.23;100.00;56998.88;5053979;28;20140;-60
2023/06/01 01:03:31;;;;;;;9.77;4.72;;;;;;;-148.23;100.00;56998.88;5054063;28;20045;-60
2023/06/01 01:06:11;;;;;;;6.50;4.22;;;;;;;-148.23;100.00;56998.88;5053907;28;20497;-60
2023/06/01 01:08:48;;;;;;;14.00;5.05;;;;;;;-148.23;100.00;56998.88;5053861;28;20137;-60
2023/06/01 01:11:21;;;;;;;10.82;4.30;;;;;;;-148.23;100.00;56998.88;5053536;28;20045;-60
2023/06/01 01:13:54;;;;;;;14.00;4.35;;;;;;;-148.23;100.00;56998.88;5053708;28;20053;-60
2023/06/01 01:16:28;;;;;;;8.05;4.38;;;;;;;-148.23;100.00;56998.88;5053760;28;20858;-60
2023/06/01 01:19:02;;;;;;;13.07;4.18;;;;;;;-148.23;100.00;56998.88;5053032;28;20056;-60
2023/06/01 01:21:33;;;;;;;11.55;4.28;;;;;;;-148.23;100.00;56998.88;5053534;28;20506;-59
2023/06/01 01:24:17;;;;;;;14.18;4.10;;;;;;;-148.23;100.00;56998.88;5053769;28;20045;-60
2023/06/01 01:26:55;;;;;;;11.73;4.82;;;;;;;-148.23;100.00;56998.88;5053454;28;20126;-60
2023/06/01 01:29:27;;;;;;;7.45;4.50;;;;;;;-148.23;100.00;56998.88;5053304;28;20175;-60
2023/06/01 01:31:56;;;;;;;8.93;4.35;;;;;;;-148.23;100.00;56998.88;5053372;28;20081;-60
2023/06/01 01:34:27;;;;;;;9.65;4.25;;;;;;;-148.23;100.00;56998.88;5053352;28;20080;-60
2023/06/01 01:36:54;;;;;;;8.60;4.32;;;;;;;-148.23;100.00;56998.88;5053289;28;20044;-60
2023/06/01 01:39:21;;;;;;;9.48;4.13;;;;;;;-148.23;100.00;56998.88;5053414;28;20135;-59
2023/06/01 01:41:48;;;;;;;5.72;3.95;;;;;;;-148.23;100.00;56998.88;5053445;28;20087;-59
2023/06/01 01:44:16;;;;;;;9.35;3.53;;;;;;;-148.23;100.00;56998.88;5053397;28;20045;-59
2023/06/01 01:46:52;;;;;;;12.43;4.20;;;;;;;-148.23;100.00;56998.88;5053188;28;20045;-59
2023/06/01 01:49:26;;;;;;;9.55;4.00;;;;;;;-148.23;100.00;56998.88;5053091;28;20136;-59
2023/06/01 01:51:58;;;;;;;10.65;4.63;;;;;;;-148.23;100.00;56998.88;5053206;28;20120;-60
2023/06/01 01:54:26;;;;;;;5.90;3.92;;;;;;;-148.23;100.00;56998.88;5053106;28;20063;-59
2023/06/01 01:56:58;;;;;;;6.97;3.55;;;;;;;-148.23;100.00;56998.88;5053150;28;20045;-60
2023/06/01 01:59:26;;;;;;;13.43;4.85;;;;;;;-148.23;100.00;56998.88;5053223;28;20514;-59
2023/06/01 02:01:55;;;;;;;9.13;4.03;;;;;;;-148.23;100.00;56998.88;5053147;28;20087;-59
2023/06/01 02:04:23;;;;;;;8.10;3.85;;;;;;;-148.23;100.00;56998.88;5052978;28;20076;-59
2023/06/01 02:06:50;;;;;;;7.00;3.97;;;;;;;-148.23;100.00;56998.88;5053063;28;20099;-59
2023/06/01 02:09:17;;;;;;;8.23;4.72;;;;;;;-148.23;100.00;56998.88;5052928;28;20120;-59
2023/06/01 02:11:44;;;;;;;11.75;5.18;;;;;;;-148.23;100.00;56998.88;5052884;28;20049;-59
2023/06/01 02:14:11;;;;;;;8.30;4.13;;;;;;;-148.23;100.00;56998.88;5052961;28;20045;-59
2023/06/01 02:16:38;;;;;;;14.43;4.68;;;;;;;-148.23;100.00;56998.88;5053065;28;20098;-60
2023/06/01 02:19:10;;;;;;;9.73;4.35;;;;;;;-148.23;100.00;56998.88;5052963;28;20053;-60
2023/06/01 02:21:38;;;;;;;14.25;4.07;;;;;;;-148.23;100.00;56998.88;5052973;28;20096;-60
2023/06/01 02:24:07;;;;;;;13.75;3.90;;;;;;;-148.23;100.00;56998.88;5052926;28;20120;-60
2023/06/01 02:26:34;;;;;;;8.30;3.58;;;;;;;-148.23;100.00;56998.88;5052855;28;20133;-59
2023/06/01 02:29:04;;;;;;;11.00;3.95;;;;;;;-148.23;100.00;56998.88;5054091;28;20131;-60
2023/06/01 02:31:31;;;;;;;;;;;;;;;-148.23;100.00;56998.88;5057190;28;20479;-60
2023/06/01 02:33:58;;;;;;;12.30;3.67;;;;;;;-148.23;100.00;56998.88;5057063;28;19921;-60
2023/06/01 02:36:28;;;;;;;8.90;3.95;;;;;;;-148.23;100.00;56998.88;5056752;28;20076;-59
2023/06/01 02:38:55;;;;;;;7.90;3.65;;;;;;;-148.23;100.00;56998.88;5056737;28;20045;-60
2023/06/01 02:41:23;;;;;;;11.55;3.78;;;;;;;-148.23;100.00;56998.88;5056657;28;20041;-60
2023/06/01 02:43:50;;;;;;;12.20;4.47;;;;;;;-148.23;100.00;56998.88;5056608;28;20052;-60
2023/06/01 02:46:17;;;;;;;11.25;4.72;;;;;;;-148.23;100.00;56998.88;5056482;28;20052;-61
2023/06/01 02:48:44;;;;;;;12.20;4.90;;;;;;;-148.23;100.00;56998.88;5056433;28;20483;-59
2023/06/01 02:51:11;;;;;;;9.02;4.45;;;;;;;-148.23;100.00;56998.88;5056399;28;20056;-60
2023/06/01 02:53:42;;;;;;;4.28;3.88;;;;;;;-148.23;100.00;56998.88;5056511;28;20060;-60
2023/06/01 02:56:09;;;;;;;15.77;4.57;;;;;;;-148.23;100.00;56998.88;5056580;28;20131;-61
2023/06/01 02:58:37;;;;;;;7.55;4.65;;;;;;;-148.23;100.00;56998.88;5056390;28;20091;-60
2023/06/01 03:01:04;;;;;;;9.60;4.50;;;;;;;-148.23;100.00;56998.88;5056226;28;20049;-60
2023/06/01 03:03:31;;;;;;;5.07;3.45;;;;;;;-148.23;100.00;56998.88;5056142;28;20552;-60
2023/06/01 03:05:58;;;;;;;9.70;3.88;;;;;;;-148.23;100.00;56998.88;5056244;28;20131;-60
2023/06/01 03:08:26;;;;;;;11.52;4.28;;;;;;;-148.23;100.00;56998.88;5056072;28;20103;-60
2023/06/01 03:10:54;;;;;;;8.55;4.80;;;;;;;-148.23;100.00;56998.88;5056037;28;20175;-60
2023/06/01 03:13:21;;;;;;;6.68;4.60;;;;;;;-148.23;100.00;56998.88;5056089;28;20388;-60
2023/06/01 03:15:50;;;;;;;11.40;4.38;;;;;;;-148.23;100.00;56998.88;5055950;28;20096;-60
2023/06/01 03:18:17;;;;;;;12.60;3.97;;;;;;;-148.23;100.00;56998.88;5056023;28;20123;-61
2023/06/01 03:20:44;;;;;;;11.27;4.47;;;;;;;-148.23;100.00;56998.88;5055981;28;20083;-60
2023/06/01 03:23:14;;;;;;;9.63;4.38;;;;;;;-148.23;100.00;56998.88;5056206;28;20052;-60
2023/06/01 03:25:41;;;;;;;11.32;4.32;;;;;;;-148.23;100.00;56998.88;5055797;28;20658;-60
2023/06/01 03:28:10;;;;;;;14.73;5.22;;;;;;;-148.23;100.00;56998.88;5055807;28;20076;-60
2023/06/01 03:30:37;;;;;;;6.30;4.07;;;;;;;-148.23;100.00;56998.88;5056127;28;20222;-60
2023/06/01 03:33:04;;;;;;;9.50;4.35;;;;;;;-148.23;100.00;56998.88;5055958;28;20049;-60
2023/06/01 03:35:34;;;;;;;7.18;4.63;;;;;;;-148.23;100.00;56998.88;5055725;28;20045;-60
2023/06/01 03:38:01;;;;;;;7.88;3.78;;;;;;;-148.23;100.00;56998.88;5055643;28;20510;-60
2023/06/01 03:40:28;;;;;;;4.38;3.42;;;;;;;-148.23;100.00;56998.88;5054921;28;20091;-60
2023/06/01 03:42:56;;;;;;;6.35;3.85;;;;;;;-148.23;100.00;56998.88;5055781;28;20483;-60
2023/06/01 03:45:24;;;;;;;5.50;3.22;;;;;;;-148.23;100.00;56998.88;5055564;28;20106;-60
2023/06/01 03:47:52;;;;;;;4.78;3.20;;;;;;;-148.23;100.00;56998.88;5055538;28;20124;-60
2023/06/01 03:50:20;;;;;;;8.65;3.72;;;;;;;-148.23;100.00;56998.88;5055307;28;20483;-60
2023/06/01 03:52:48;;;;;;;6.63;3.58;;;;;;;-148.23;100.00;56998.88;5055626;28;20483;-60
2023/06/01 03:55:15;;;;;;;7.47;3.65;;;;;;;-148.23;100.00;56998.88;5055312;28;20398;-59
2023/06/01 03:57:42;;;;;;;5.32;3.15;;;;;;;-148.23;100.00;56998.88;5055229;28;20049;-60
2023/06/01 04:00:18;;;;;;;9.27;3.45;;;;;;;-148.23;100.00;56998.88;5055145;28;20049;-60
2023/06/01 04:02:52;;;;;;;6.78;3.65;;;;;;;-148.23;100.00;56998.88;5055236;28;20398;-60
2023/06/01 04:05:19;;;;;;;6.13;3.10;;;;;;;-148.23;100.00;56998.88;5055065;28;20122;-60
2023/06/01 04:07:48;;;;;;;10.50;3.40;;;;;;;-148.23;100.00;56998.88;5054994;28;20051;-60
2023/06/01 04:10:16;;;;;;;10.40;3.42;;;;;;;-148.23;100.00;56998.88;5055045;28;20135;-59
2023/06/01 04:12:44;;;;;;;12.13;3.58;;;;;;;-148.23;100.00;56998.88;5054771;28;20136;-61
2023/06/01 04:15:12;;;;;;;6.03;3.42;;;;;;;-148.23;100.00;56998.88;5054959;28;20557;-61
2023/06/01 04:17:40;;;;;;;4.15;3.35;;;;;;;-148.23;100.00;56998.88;5054897;28;20578;-60
2023/06/01 04:20:11;;;;;;;19.25;3.60;;;;;;;-148.23;100.00;56998.88;5054930;28;20107;-60
2023/06/01 04:22:38;;;;;;;5.03;2.90;;;;;;;-148.23;100.00;56998.88;5054804;28;20045;-60
2023/06/01 04:25:08;;;;;;;8.30;3.45;;;;;;;-148.23;100.00;56998.88;5054722;28;20123;-59
2023/06/01 04:27:37;;;;;;;9.70;2.72;;;;;;;-148.23;100.00;56998.88;5054701;28;20415;-60
2023/06/01 04:30:07;;;;;;;3.75;3.17;;;;;;;-148.23;100.00;56998.88;5054572;28;20063;-60
2023/06/01 04:32:37;;;;;;;4.33;3.30;;;;;;;-148.23;100.00;56998.88;5054647;28;20131;-59
2023/06/01 04:35:06;;;;;;;7.93;3.30;;;;;;;-148.23;100.00;56998.88;5054773;28;20041;-59
2023/06/01 04:37:36;;;;;;;6.30;3.30;;;;;;;-148.23;100.00;56998.88;5054431;28;20045;-59
2023/06/01 04:40:06;;;;;;;5.30;3.53;;;;;;;-148.23;100.00;56998.88;5054343;28;20132;-60
2023/06/01 04:42:34;;;;;;;10.90;3.97;;;;;;;-148.23;100.00;56998.88;5054389;28;20060;-59
2023/06/01 04:45:04;;;;;;;3.50;3.15;;;;;;;-148.23;100.00;56998.88;5054303;28;20450;-60
2023/06/01 04:47:31;;;;;;;3.60;3.28;;;;;;;-148.23;100.00;56998.88;5054243;28;20513;-59
2023/06/01 04:50:00;;;;;;;4.60;3.05;;;;;;;-148.23;100.00;56998.88;5054245;28;20542;-61
2023/06/01 04:52:28;;;;;;;4.90;3.30;;;;;;;-148.23;100.00;56998.88;5053066;28;20049;-60
2023/06/01 04:54:56;;;;;;;5.78;3.60;;;;;;;-148.23;100.00;56998.88;5054027;28;20049;-60
2023/06/01 04:57:24;;;;;;;4.65;3.67;;;;;;;-148.23;100.00;56998.88;5054252;28;20053;-60
2023/06/01 04:59:56;;;;;;;4.13;3.67;;;;;;;-148.23;100.00;56998.88;5054026;28;20131;-59
2023/06/01 05:02:23;;;;;;;9.57;3.53;;;;;;;-148.23;100.00;56998.88;5054240;28;20080;-60
2023/06/01 05:04:51;;;;;;;7.82;3.33;;;;;;;-148.23;100.00;56998.88;5054099;28;20103;-60
2023/06/01 05:07:18;;;;;;;6.68;3.42;;;;;;;-148.23;100.00;56998.88;5054029;28;20052;-59
2023/06/01 05:09:45;;;;;;;8.35;3.08;;;;;;;-148.23;100.00;56998.88;5053925;28;20147;-59
2023/06/01 05:12:14;;;;;;;4.50;3.58;;;;;;;-148.23;100.00;56998.88;5053564;28;20052;-59
2023/06/01 05:14:41;;;;;;;7.47;3.40;;;;;;;-148.23;100.00;56998.88;5054087;28;20049;-59
2023/06/01 05:17:08;;;;;;;5.88;3.10;;;;;;;-148.23;100.00;56998.88;5053802;28;20049;-59
2023/06/01 05:19:35;;;;;;;8.25;3.20;;;;;;;-148.23;100.00;56998.88;5053747;28;20049;-60
2023/06/01 05:22:02;;;;;;;7.25;3.15;;;;;;;-148.23;100.00;56998.88;5053846;28;20049;-59
2023/06/01 05:24:29;;;;;;;4.35;3.17;;;;;;;-148.23;100.00;56998.88;5053583;28;20504;-60
2023/06/01 05:26:57;;;;;;;6.10;3.80;;;;;;;-148.23;100.00;56998.88;5053785;28;20131;-58
2023/06/01 05:29:25;;;;;;;6.03;3.40;;;;;;;-148.23;100.00;56998.88;5053721;28;20060;-60
2023/06/01 05:31:53;;;;;;;9.43;3.40;;;;;;;-148.23;100.00;56998.88;5053433;28;20080;-59
2023/06/01 05:34:20;;;;;;;7.70;3.20;;;;;;;-148.23;100.00;56998.88;5053971;28;20041;-59
2023/06/01 05:36:48;;;;;;;5.75;3.58;;;;;;;-148.23;100.00;56998.88;5053461;28;20102;-59
2023/06/01 05:39:15;;;;;;;6.65;3.17;;;;;;;-148.23;100.00;56998.88;5053316;28;20045;-60
2023/06/01 05:41:43;;;;;;;5.82;3.35;;;;;;;-148.23;100.00;56998.88;5053407;28;20059;-61
2023/06/01 05:44:10;;;;;;;9.27;3.70;;;;;;;-148.23;100.00;56998.88;5053582;28;20094;-60
2023/06/01 05:46:39;;;;;;;6.53;3.53;;;;;;;-148.23;100.00;56998.88;5053366;28;20051;-60
2023/06/01 05:49:06;;;;;;;3.90;3.22;;;;;;;-148.23;100.00;56998.88;5053236;28;20045;-60
2023/06/01 05:51:36;;;;;;;7.10;3.33;;;;;;;-148.23;100.00;56998.88;5053202;28;20059;-60
2023/06/01 05:54:04;;;;;;;;;;;;;;;-148.23;100.00;56998.88;5053810;28;20045;-59
2023/06/01 05:56:31;;;;;;;5.90;3.17;;;;;;;-148.23;100.00;56998.88;5053226;28;20057;-60
2023/06/01 05:58:59;;;;;;;5.82;3.53;;;;;;;-148.23;100.00;56998.88;5053144;28;20053;-60
2023/06/01 06:01:27;;;;;;;8.77;3.67;;;;;;;-148.23;100.00;56998.88;5053095;28;20053;-59
2023/06/01 06:03:57;;;;;;;6.38;2.90;;;;;;;-148.23;100.00;56998.88;5052787;28;20045;-59
2023/06/01 06:06:25;;;;;;;4.60;3.30;;;;;;;-148.23;100.00;56998.88;5053023;28;20053;-58
2023/06/01 06:08:52;;;;;;;8.80;3.60;;;;;;;-148.23;100.00;56998.88;5053002;28;20052;-59
2023/06/01 06:11:19;;;;;;;9.77;3.78;;;;;;;-148.23;100.00;56998.88;5052658;28;20136;-60
2023/06/01 06:13:48;;;;;;;5.28;3.28;;;;;;;-148.23;100.00;56998.88;5052937;28;20049;-59
2023/06/01 06:16:16;;;;;;;6.70;3.25;;;;;;;-148.23;100.00;56998.88;5053081;28;20392;-59
2023/06/01 06:18:43;;;;;;;7.75;3.33;;;;;;;-148.23;100.00;56998.88;5052931;28;20045;-58
2023/06/01 06:21:11;;;;;;;14.63;3.60;;;;;;;-148.23;100.00;56998.88;5052755;28;20558;-59
2023/06/01 06:23:39;;;;;;;4.40;3.05;;;;;;;-148.23;100.00;56998.88;5052836;28;20135;-59
2023/06/01 06:26:06;;;;;;;4.85;2.80;;;;;;;-148.23;100.00;56998.88;5052817;28;20048;-59
2023/06/01 06:28:33;;;;;;;6.68;3.25;;;;;;;-148.23;100.00;56998.88;5052786;28;20041;-59
2023/06/01 06:31:01;;;;;;;5.00;3.15;;;;;;;-148.23;100.00;56998.88;5052880;28;20450;-59
2023/06/01 06:33:28;;;;;;;4.15;3.13;;;;;;;-148.23;100.00;56998.88;5052800;28;20053;-59
2023/06/01 06:35:55;;;;;;;6.28;3.70;;;;;;;-148.23;100.00;56998.88;5052645;28;20045;-59
2023/06/01 06:38:24;;;;;;;7.88;3.63;;;;;;;-148.23;100.00;56998.88;5052700;28;20064;-59
2023/06/01 06:40:51;;;;;;;7.45;3.50;;;;;;;-148.23;100.00;56998.88;5052800;28;20128;-59
2023/06/01 06:43:18;;;;;;;6.60;3.47;;;;;;;-148.23;100.00;56998.88;5052612;28;20049;-59
2023/06/01 06:45:45;;;;;;;4.82;3.40;;;;;;;-148.23;100.00;56998.88;5052746;28;20076;-60
2023/06/01 06:48:12;;;;;;;13.07;4.25;;;;;;;-148.23;100.00;56998.88;5052710;28;20045;-59
2023/06/01 06:50:43;;;;;;;3.45;2.88;;;;;;;-148.23;100.00;56998.88;5052635;28;20124;-59
2023/06/01 06:53:11;;;;;;;4.65;3.47;;;;;;;-148.23;100.00;56998.88;5052621;28;20049;-59
2023/06/01 06:55:39;;;;;;;3.30;3.00;;;;;;;-148.23;100.00;56998.88;5052488;28;20084;-59
2023/06/01 06:58:07;;;;;;;9.32;3.70;;;;;;;-148.23;100.00;56998.88;5052652;28;20081;-59
2023/06/01 07:00:34;;;;;;;5.95;3.50;;;;;;;-148.23;100.00;56998.88;5052463;28;20052;-59
2023/06/01 07:03:01;;;;;;;8.07;2.80;;;;;;;-148.23;100.00;56998.88;5052398;28;20403;-59
2023/06/01 07:05:28;;;;;;;2.97;2.70;;;;;;;-148.23;100.00;56998.88;5052533;28;20053;-59
2023/06/01 07:07:55;;;;;;;7.80;3.25;;;;;;;-148.23;100.00;56998.88;5052527;28;20061;-59
2023/06/01 07:10:22;;;;;;;12.38;3.08;;;;;;;-148.23;100.00;56998.88;5052754;28;20045;-59
2023/06/01 07:12:51;;;;;;;4.28;2.92;;;;;;;-148.23;100.00;56998.88;5052292;28;20061;-61
2023/06/01 07:15:19;;;;;;;3.40;3.08;;;;;;;-148.23;100.00;56998.88;5052397;28;20075;-60
2023/06/01 07:17:46;;;;;;;8.43;3.05;;;;;;;-148.23;100.00;56998.88;5056079;28;20092;-60
2023/06/01 07:20:13;;;;;;;7.47;3.20;;;;;;;-148.23;100.00;56998.88;5056067;28;20411;-60
2023/06/01 07:22:41;;;;;;;8.93;3.22;;;;;;;-148.23;100.00;56998.88;5055981;28;20506;-60
2023/06/01 07:25:10;;;;;;;6.75;3.30;;;;;;;-148.23;100.00;56998.88;5056160;28;20142;-60
2023/06/01 07:27:37;;;;;;;8.65;2.53;;;;;;;-148.23;100.00;56998.88;5055884;28;20052;-60
2023/06/01 07:30:07;;;;;;;6.05;2.90;;;;;;;-148.23;100.00;56998.88;5055823;28;20080;-60
2023/06/01 07:32:34;;;;;;;5.65;2.63;;;;;;;-148.23;100.00;56998.88;5055732;28;20056;-60
2023/06/01 07:35:01;;;;;;;6.32;3.10;;;;;;;-148.23;100.00;56998.88;5055766;28;20072;-60
2023/06/01 07:37:28;;;;;;;7.00;2.92;;;;;;;-148.23;100.00;56998.88;5055676;28;20080;-60
2023/06/01 07:39:55;;;;;;;8.20;3.35;;;;;;;-148.23;100.00;56998.88;5055597;28;20049;-60
2023/06/01 07:42:23;;;;;;;5.80;2.90;;;;;;;-148.23;100.00;56998.88;5055631;28;20441;-60
2023/06/01 07:44:50;;;;;;;5.28;3.15;;;;;;;-148.23;100.00;56998.88;5055543;28;20045;-60
2023/06/01 07:47:19;;;;;;;12.50;3.20;;;;;;;-148.23;100.00;56998.88;5055437;28;20056;-61
2023/06/01 07:49:46;;;;;;;6.55;3.20;;;;;;;-148.23;100.00;56998.88;5055616;28;20060;-60
2023/06/01 07:52:13;;;;;;;5.25;2.95;;;;;;;-148.23;100.00;56998.88;5055231;28;20136;-61
2023/06/01 07:54:40;;;;;;;6.57;3.65;;;;;;;-148.23;100.00;56998.88;5055488;28;20076;-61
2023/06/01 07:57:08;;;;;;;8.00;3.28;;;;;;;-148.23;100.00;56998.88;5055322;28;20131;-60
2023/06/01 07:59:35;;;;;;;7.55;3.22;;;;;;;-148.23;100.00;56998.88;5055177;28;20048;-61
2023/06/01 08:02:02;;;;;;;5.97;2.97;;;;;;;-148.23;100.00;56998.88;5055270;28;20045;-60
2023/06/01 08:04:33;;;;;;;9.23;3.53;;;;;;;-148.23;100.00;56998.88;5055180;28;20045;-61
2023/06/01 08:07:03;;;;;;;9.95;4.10;;;;;;;-148.23;100.00;56998.88;5055130;28;20048;-60
2023/06/01 08:09:31;;;;;;;5.35;3.78;;;;;;;-148.23;100.00;56998.88;5055219;28;20056;-61
2023/06/01 08:11:58;;;;;;;9.45;3.47;;;;;;;-148.23;100.00;56998.88;5054826;28;20095;-61
2023/06/01 08:14:25;;;;;;;10.52;4.03;;;;;;;-148.23;100.00;56998.88;5055006;28;20049;-60
2023/06/01 08:16:52;;;;;;;14.90;3.53;;;;;;;-148.23;100.00;56998.88;5054925;28;20521;-61
2023/06/01 08:19:20;;;;;;;13.82;4.32;;;;;;;-148.23;100.00;56998.88;5054922;28;20124;-60
2023/06/01 08:21:48;;;;;;;7.93;4.32;;;;;;;-148.23;100.00;56998.88;5054837;28;20048;-61
2023/06/01 08:24:17;;;;;;;7.72;3.53;;;;;;;-148.23;100.00;56998.88;5054858;28;20045;-60
2023/06/01 08:26:44;;;;;;;8.15;3.78;;;;;;;-148.23;100.00;56998.88;5054466;28;20072;-60
2023/06/01 08:29:11;;;;;;;8.52;3.95;;;;;;;-148.23;100.00;56998.88;5054841;28;20084;-60
2023/06/01 08:31:38;;;;;;;9.43;4.63;;;;;;;-148.23;100.00;56998.88;5055004;28;20178;-60
2023/06/01 08:34:05;;;;;;;9.65;3.85;;;;;;;-148.23;100.00;56998.88;5054620;28;20402;-61
2023/06/01 08:36:32;;;;;;;5.88;3.65;;;;;;;-148.23;100.00;56998.88;5054607;28;20049;-60
2023/06/01 08:39:01;;;;;;;16.33;4.05;;;;;;;-148.23;100.00;56998.88;5054505;28;20122;-60
2023/06/01 08:41:38;;;;;;;6.47;3.65;;;;;;;-148.23;100.00;56998.88;5054411;28;20048;-61
2023/06/01 08:44:06;;;;;;;7.78;3.15;;;;;;;-148.23;100.00;56998.88;5054349;28;20053;-61
2023/06/01 08:46:34;;;;;;;5.68;2.90;;;;;;;-148.23;100.00;56998.88;5054239;28;20072;-61
2023/06/01 08:49:02;;;;;;;7.65;3.10;;;;;;;-148.23;100.00;56998.88;5054263;28;20442;-61
2023/06/01 08:51:33;;;;;;;12.13;3.63;;;;;;;-148.23;100.00;56998.88;5054354;28;20151;-60
2023/06/01 08:54:04;;;;;;;4.88;3.28;;;;;;;-148.23;100.00;56998.88;5054121;28;20066;-60
2023/06/01 08:56:31;;;;;;;5.45;2.42;;;;;;;-148.23;100.00;56998.88;5054156;28;20045;-60
2023/06/01 08:59:01;;;;;;;6.60;2.53;;;;;;;-148.23;100.00;56998.88;5054071;28;20107;-61
2023/06/01 09:01:29;;;;;;;7.72;2.80;;;;;;;-148.23;100.00;56998.88;5054050;28;20487;-60
2023/06/01 09:03:55;;;;;;;5.55;3.28;;;;;;;-148.23;100.00;56998.88;5053914;28;20052;-61
2023/06/01 09:06:23;;;;;;;8.73;3.13;;;;;;;-148.23;100.00;56998.88;5054018;28;20478;-61
2023/06/01 09:08:50;;;;;;;6.30;2.92;;;;;;;-148.23;100.00;56998.88;5053945;28;20080;-60
2023/06/01 09:11:20;;;;;;;6.07;3.30;;;;;;;-148.23;100.00;56998.88;5053899;28;20448;-60
2023/06/01 09:13:47;;;;;;;10.50;3.13;;;;;;;-148.23;100.00;56998.88;5053767;28;20200;-60
2023/06/01 09:16:14;;;;;;;5.18;3.20;;;;;;;-148.23;100.00;56998.88;5054113;28;20045;-61
2023/06/01 09:18:53;;;;;;;7.13;3.10;;;;;;;-148.23;100.00;56998.88;5053824;28;20045;-60
2023/06/01 09:21:20;;;;;;;7.95;3.17;;;;;;;-148.23;100.00;56998.88;5053768;28;20049;-60
2023/06/01 09:23:48;;;;;;;9.13;3.65;;;;;;;-148.23;100.00;56998.88;5053738;28;20053;-61
2023/06/01 09:26:16;;;;;;;10.25;3.35;;;;;;;-148.23;100.00;56998.88;5053585;28;20049;-61
2023/06/01 09:28:58;;;;;;;8.13;3.47;;;;;;;-148.23;100.00;56998.88;5053589;28;20057;-60
2023/06/01 09:31:41;;;;;;;9.85;3.20;;;;;;;-148.23;100.00;56998.88;5053456;28;20562;-61
2023/06/01 09:34:11;;;;;;;6.35;2.90;;;;;;;-148.23;100.00;56998.88;5053447;28;20057;-60
2023/06/01 09:36:38;;;;;;;4.90;3.20;;;;;;;-148.23;100.00;56998.88;5053384;28;20136;-60
2023/06/01 09:39:07;;;;;;;9.38;4.00;;;;;;;-148.23;100.00;56998.88;5052802;28;20095;-59
2023/06/01 09:41:48;;;;;;;4.10;3.03;;;;;;;-148.23;100.00;56998.88;5053885;28;20083;-60
2023/06/01 09:44:25;;;;;;;8.45;2.83;;;;;;;-148.23;100.00;56998.88;5053297;28;20568;-60
2023/06/01 09:46:53;;;;;;;8.23;2.85;;;;;;;-148.23;100.00;56998.88;5053396;28;20041;-60
2023/06/01 09:49:22;;;;;;;7.93;3.10;;;;;;;-148.23;100.00;56998.88;5053366;28;20514;-60
2023/06/01 09:51:49;;;;;;;6.75;2.65;;;;;;;-148.23;100.00;56998.88;5053316;28;20059;-60
2023/06/01 09:54:30;;;;;;;7.10;3.42;;;;;;;-148.23;100.00;56998.88;5053250;28;20056;-60
2023/06/01 09:56:59;;;;;;;5.20;2.83;;;;;;;-148.23;100.00;56998.88;5053060;28;20411;-61
2023/06/01 09:59:30;;;;;;;5.68;2.95;;;;;;;-148.23;100.00;56998.88;5053213;28;20053;-60
2023/06/01 10:01:59;;;;;;;3.65;2.92;;;;;;;-148.23;100.00;56998.88;5053269;28;20056;-60
2023/06/01 10:04:28;;;;;;;8.57;3.23;;;;;;;-148.23;100.00;56998.88;5053041;28;20045;-61
2023/06/01 10:06:56;;;;;;;5.60;3.22;;;;;;;-148.23;100.00;56998.88;5053104;28;20799;-61
2023/06/01 10:09:24;;;;;;;5.43;3.22;;;;;;;-148.23;100.00;56998.88;5053019;28;20048;-60
2023/06/01 10:11:54;;;;;;;5.85;3.30;;;;;;;-148.23;100.00;56998.88;5052684;28;20083;-60
2023/06/01 10:14:23;;;;;;;14.50;3.03;;;;;;;-148.23;100.00;56998.88;5053063;28;20158;-60
2023/06/01 10:16:53;;;;;;;7.18;3.30;;;;;;;-148.23;100.00;56998.88;5052954;28;20132;-59
2023/06/01 10:19:21;;;;;;;5.30;3.15;;;;;;;-148.23;100.00;56998.88;5052909;28;20049;-60
2023/06/01 10:21:50;;;;;;;7.45;3.63;;;;;;;-148.23;100.00;56998.88;5052961;28;20088;-60
2023/06/01 10:24:18;;;;;;;4.35;2.95;;;;;;;-148.23;100.00;56998.88;5052900;28;20491;-60
2023/06/01 10:26:58;;;;;;;6.40;3.60;;;;;;;-148.23;100.00;56998.88;5052823;28;20411;-60
2023/06/01 10:29:25;;;;;;;5.80;3.13;;;;;;;-148.23;100.00;56998.88;5052858;28;20106;-61
2023/06/01 10:31:54;;;;;;;7.88;3.25;;;;;;;-148.23;100.00;56998.88;5052895;28;20045;-60
2023/06/01 10:34:39;;;;;;;6.95;3.50;;;;;;;-148.23;100.00;56998.88;5052867;28;20048;-60
2023/06/01 10:37:14;;;;;;;5.68;3.20;;;;;;;-148.23;100.00;56998.88;5052769;28;20124;-60
2023/06/01 10:39:41;;;;;;;3.33;3.03;;;;;;;-148.23;100.00;56998.88;5052733;28;20055;-60
2023/06/01 10:42:39;;;;;;;6.90;2.92;;;;;;;-148.23;100.00;56998.88;5052745;28;20059;-60
2023/06/01 10:45:28;;;;;;;5.10;3.28;;;;;;;-148.23;100.00;56998.88;5052015;28;20554;-60
2023/06/01 10:47:57;;;;;;;4.45;3.20;;;;;;;-148.23;100.00;56998.88;5052597;28;20049;-60
2023/06/01 10:50:23;;;;;;;9.63;3.00;;;;;;;-148.23;100.00;56998.88;5052702;28;20483;-60
2023/06/01 10:52:51;;;;;;;8.10;3.00;;;;;;;-148.23;100.00;56998.88;5056720;28;20045;-60
2023/06/01 10:55:25;;;;;;;4.95;3.55;;;;;;;-148.23;100.00;56998.88;5056480;28;20471;-60
2023/06/01 10:58:12;;;;;;;4.15;3.20;;;;;;;-148.23;100.00;56998.88;5056422;28;20469;-60
2023/06/01 11:00:40;;;;;;;11.25;3.75;;;;;;;-148.23;100.00;56998.88;5056222;28;20132;-60
2023/06/01 11:03:08;;;;;;;8.20;3.95;;;;;;;-148.23;100.00;56998.88;5056314;28;20052;-60
2023/06/01 11:05:46;;;;;;;8.30;3.78;;;;;;;-148.23;100.00;56998.88;5056327;28;20056;-60
2023/06/01 11:08:50;;;;;;;6.32;3.15;;;;;;;-148.23;100.00;56998.88;5056250;28;20127;-60
2023/06/01 11:11:17;;;;;;;9.02;3.97;;;;;;;-148.23;100.00;56998.88;5055921;28;20144;-60
2023/06/01 11:14:05;;;;;;;6.38;3.70;;;;;;;-148.23;100.00;56998.88;5055990;28;20053;-59
2023/06/01 11:16:33;;;;;;;6.13;3.63;;;;;;;-148.23;100.00;56998.88;5056339;28;20049;-60
2023/06/01 11:19:03;;;;;;;5.82;3.85;;;;;;;-148.23;100.00;56998.88;5056122;28;20057;-60